createdAt,value
2022-11-19T00:02:11.945Z,100586.44
2022-11-19T00:04:39.843Z,100590.25
2022-11-19T00:07:06.358Z,100589.56
2022-11-19T00:09:32.890Z,100582.09
2022-11-19T00:11:59.326Z,100581.84
2022-11-19T00:14:25.786Z,100583.56
2022-11-19T00:16:52.218Z,100585.09
2022-11-19T00:19:18.827Z,100588.03
2022-11-19T00:21:46.704Z,100587.22
2022-11-19T00:24:13.122Z,100591.72
2022-11-19T00:26:39.618Z,100587.13
2022-11-19T00:29:06.071Z,100595.13
2022-11-19T00:31:32.716Z,100585.97
2022-11-19T00:33:59.106Z,100591.19
2022-11-19T00:36:25.542Z,100589.81
2022-11-19T00:38:53.362Z,100594.84
2022-11-19T00:41:19.869Z,100604.34
2022-11-19T00:43:46.623Z,100590.81
2022-11-19T00:46:13.774Z,100601.47
2022-11-19T00:48:40.494Z,100605.44
2022-11-19T00:51:07.073Z,100614.47
2022-11-19T00:53:33.502Z,100608.28
2022-11-19T00:56:02.271Z,100617.19
2022-11-19T00:58:28.914Z,100614.44
2022-11-19T01:00:55.849Z,100616.16
2022-11-19T01:03:23.035Z,100622.28
2022-11-19T01:05:49.813Z,100621.13
2022-11-19T01:08:16.279Z,100616.38
2022-11-19T01:10:42.707Z,100623.72
2022-11-19T01:13:10.776Z,100624.03
2022-11-19T01:15:37.205Z,100626.94
2022-11-19T01:18:03.744Z,100621.72
2022-11-19T01:20:30.198Z,100627.94
2022-11-19T01:22:56.688Z,100630.09
2022-11-19T01:25:23.083Z,100633.25
2022-11-19T01:27:49.709Z,100642.34
2022-11-19T01:30:18.102Z,100634.94
2022-11-19T01:32:44.535Z,100630.72
2022-11-19T01:35:11.070Z,100643.06
2022-11-19T01:37:37.781Z,100643.09
2022-11-19T01:40:05.391Z,100635.16
2022-11-19T01:42:33.093Z,100637.94
2022-11-19T01:45:03.607Z,100646.03
2022-11-19T01:47:31.886Z,100649.53
2022-11-19T01:49:59.027Z,100638.50
2022-11-19T01:52:25.527Z,100649.09
2022-11-19T01:54:55.337Z,100649.28
2022-11-19T01:57:22.100Z,100643.31
2022-11-19T01:59:51.472Z,100652.91
2022-11-19T02:02:18.424Z,100650.69
2022-11-19T02:04:47.196Z,100654.72
2022-11-19T02:07:14.143Z,100653.47
2022-11-19T02:09:41.073Z,100664.88
2022-11-19T02:12:19.844Z,100654.34
2022-11-19T02:15:15.370Z,100662.13
2022-11-19T02:17:55.278Z,100665.66
2022-11-19T02:20:49.833Z,100663.78
2022-11-19T02:23:46.523Z,100668.13
2022-11-19T02:26:45.498Z,100671.16
2022-11-19T02:29:29.667Z,100677.25
2022-11-19T02:32:00.585Z,100681.16
2022-11-19T02:34:31.732Z,100685.03
2022-11-19T02:37:02.346Z,100686.44
2022-11-19T02:39:37.287Z,100689.56
2022-11-19T02:42:08.994Z,100683.75
2022-11-19T02:44:40.426Z,100683.47
2022-11-19T02:47:13.056Z,100682.53
2022-11-19T02:49:43.597Z,100688.09
2022-11-19T02:52:10.957Z,100684.34
2022-11-19T02:54:37.385Z,100690.44
2022-11-19T02:57:03.977Z,100688.13
2022-11-19T02:59:36.047Z,100686.56
2022-11-19T03:02:04.508Z,100695.56
2022-11-19T03:04:32.987Z,100693.16
2022-11-19T03:07:04.767Z,100694.97
2022-11-19T03:09:34.184Z,100690.91
2022-11-19T03:12:09.854Z,100693.34
2022-11-19T03:14:44.437Z,100693.22
2022-11-19T03:17:16.393Z,100689.34
2022-11-19T03:19:50.481Z,100695.47
2022-11-19T03:22:22.112Z,100697.84
2022-11-19T03:24:52.014Z,100691.06
2022-11-19T03:27:22.943Z,100702.78
2022-11-19T03:29:53.094Z,100703.53
2022-11-19T03:32:23.739Z,100709.53
2022-11-19T03:34:56.863Z,100710.63
2022-11-19T03:37:25.233Z,100705.09
2022-11-19T03:39:53.565Z,100709.31
2022-11-19T03:42:21.802Z,100711.59
2022-11-19T03:44:51.739Z,100712.09
2022-11-19T03:47:21.178Z,100710.03
2022-11-19T03:49:54.119Z,100718.16
2022-11-19T03:52:21.198Z,100715.50
2022-11-19T03:54:47.795Z,100718.63
2022-11-19T03:57:18.053Z,100721.13
2022-11-19T03:59:45.344Z,100723.00
2022-11-19T04:02:13.028Z,100723.44
2022-11-19T04:04:39.783Z,100728.38
2022-11-19T04:07:10.098Z,100727.38
2022-11-19T04:09:37.361Z,100736.94
2022-11-19T04:12:04.519Z,100738.25
2022-11-19T04:14:30.954Z,100740.13
2022-11-19T04:16:57.473Z,100746.19
2022-11-19T04:19:24.073Z,100740.34
2022-11-19T04:21:51.000Z,100736.16
2022-11-19T04:24:18.837Z,100740.13
2022-11-19T04:26:45.297Z,100740.97
2022-11-19T04:29:11.700Z,100742.66
2022-11-19T04:31:38.128Z,100745.56
2022-11-19T04:34:04.888Z,100743.47
2022-11-19T04:36:31.502Z,100745.16
2022-11-19T04:38:57.927Z,100744.91
2022-11-19T04:41:25.918Z,100745.97
2022-11-19T04:43:52.387Z,100744.09
2022-11-19T04:46:18.810Z,100750.34
2022-11-19T04:48:45.311Z,100745.34
2022-11-19T04:51:11.771Z,100745.97
2022-11-19T04:53:38.204Z,100757.66
2022-11-19T04:56:05.079Z,100755.81
2022-11-19T04:58:32.895Z,100755.38
2022-11-19T05:00:59.332Z,100751.81
2022-11-19T05:03:25.809Z,100740.91
2022-11-19T05:05:52.210Z,100741.72
2022-11-19T05:08:18.658Z,100737.38
2022-11-19T05:10:45.318Z,100740.50
2022-11-19T05:13:11.851Z,100738.63
2022-11-19T05:15:39.880Z,100741.56
2022-11-19T05:18:06.407Z,100742.84
2022-11-19T05:20:32.944Z,100737.97
2022-11-19T05:22:59.995Z,100727.09
2022-11-19T05:25:26.406Z,100739.41
2022-11-19T05:27:52.822Z,100736.72
2022-11-19T05:30:20.245Z,100729.88
2022-11-19T05:32:48.174Z,100737.91
2022-11-19T05:35:14.614Z,100731.78
2022-11-19T05:37:41.004Z,100735.88
2022-11-19T05:40:11.249Z,100730.38
2022-11-19T05:42:37.673Z,100745.28
2022-11-19T05:45:05.318Z,100742.88
2022-11-19T05:47:31.792Z,100741.91
2022-11-19T05:49:59.549Z,100742.88
2022-11-19T05:52:27.920Z,100750.00
2022-11-19T05:54:54.636Z,100756.22
2022-11-19T05:57:21.024Z,100751.88
2022-11-19T05:59:47.447Z,100755.25
2022-11-19T06:02:13.910Z,100762.41
2022-11-19T06:04:40.292Z,100764.31
2022-11-19T06:07:08.075Z,100762.06
2022-11-19T06:09:34.570Z,100763.03
2022-11-19T06:12:00.989Z,100771.59
2022-11-19T06:14:27.963Z,100775.81
2022-11-19T06:16:55.901Z,100774.59
2022-11-19T06:19:23.231Z,100777.69
2022-11-19T06:21:50.750Z,100776.66
2022-11-19T06:24:18.894Z,100780.38
2022-11-19T06:26:45.361Z,100788.34
2022-11-19T06:29:13.705Z,100783.75
2022-11-19T06:31:40.223Z,100795.88
2022-11-19T06:34:06.981Z,100799.84
2022-11-19T06:36:39.927Z,100792.13
2022-11-19T06:39:07.613Z,100792.53
2022-11-19T06:41:35.584Z,100794.84
2022-11-19T06:44:02.400Z,100794.81
2022-11-19T06:46:28.836Z,100806.50
2022-11-19T06:48:55.228Z,100812.34
2022-11-19T06:51:21.711Z,100819.88
2022-11-19T06:53:48.259Z,100818.22
2022-11-19T06:56:14.677Z,100809.88
2022-11-19T06:58:42.459Z,100802.13
2022-11-19T07:01:09.039Z,100814.66
2022-11-19T07:03:35.471Z,100823.44
2022-11-19T07:06:03.955Z,100809.44
2022-11-19T07:08:33.724Z,100826.16
2022-11-19T07:11:00.720Z,100831.38
2022-11-19T07:13:27.136Z,100826.34
2022-11-19T07:15:54.953Z,100825.50
2022-11-19T07:18:21.346Z,100822.19
2022-11-19T07:20:47.741Z,100833.25
2022-11-19T07:23:14.162Z,100825.31
2022-11-19T07:25:40.702Z,100835.94
2022-11-19T07:28:08.126Z,100833.47
2022-11-19T07:30:34.537Z,100840.16
2022-11-19T07:33:02.291Z,100845.13
2022-11-19T07:35:28.703Z,100849.94
2022-11-19T07:37:55.142Z,100849.34
2022-11-19T07:40:21.563Z,100849.31
2022-11-19T07:42:47.975Z,100838.84
2022-11-19T07:45:14.800Z,100839.09
2022-11-19T07:47:41.243Z,100839.16
2022-11-19T07:50:09.570Z,100831.16
2022-11-19T07:52:36.185Z,100835.88
2022-11-19T07:55:02.659Z,100838.84
2022-11-19T07:57:30.522Z,100838.44
2022-11-19T07:59:57.182Z,100838.00
2022-11-19T08:02:23.627Z,100838.66
2022-11-19T08:04:50.076Z,100836.97
2022-11-19T08:07:18.160Z,100835.75
2022-11-19T08:09:44.608Z,100839.44
2022-11-19T08:12:11.063Z,100837.97
2022-11-19T08:14:37.515Z,100834.94
2022-11-19T08:17:04.023Z,100838.09
2022-11-19T08:19:30.430Z,100833.44
2022-11-19T08:21:56.853Z,100847.13
2022-11-19T08:24:24.631Z,100847.84
2022-11-19T08:26:51.203Z,100850.91
2022-11-19T08:29:19.921Z,100850.88
2022-11-19T08:31:47.635Z,100855.22
2022-11-19T08:34:14.446Z,100844.59
2022-11-19T08:36:41.175Z,100841.50
2022-11-19T08:39:07.749Z,100847.50
2022-11-19T08:41:35.770Z,100846.06
2022-11-19T08:44:02.811Z,100841.66
2022-11-19T08:46:29.237Z,100845.91
2022-11-19T08:48:56.351Z,100849.22
2022-11-19T08:51:22.795Z,100842.84
2022-11-19T08:53:51.486Z,100856.72
2022-11-19T08:56:18.309Z,100851.78
2022-11-19T08:58:46.804Z,100837.03
2022-11-19T09:01:15.124Z,100841.44
2022-11-19T09:03:41.808Z,100838.91
2022-11-19T09:06:09.342Z,100840.78
2022-11-19T09:08:36.281Z,100846.63
2022-11-19T09:11:06.236Z,100857.28
2022-11-19T09:13:32.839Z,100846.31
2022-11-19T09:16:00.651Z,100847.88
2022-11-19T09:18:27.175Z,100838.03
2022-11-19T09:20:54.075Z,100854.31
2022-11-19T09:23:20.991Z,100841.34
2022-11-19T09:25:54.990Z,100850.34
2022-11-19T09:28:21.417Z,100857.19
2022-11-19T09:30:54.703Z,100855.88
2022-11-19T09:33:23.036Z,100856.97
2022-11-19T09:35:49.540Z,100861.72
2022-11-19T09:38:15.973Z,100859.63
2022-11-19T09:40:45.248Z,100861.34
2022-11-19T09:43:20.140Z,100859.97
2022-11-19T09:45:56.716Z,100853.88
2022-11-19T09:48:33.892Z,100842.66
2022-11-19T09:51:03.751Z,100843.06
2022-11-19T09:53:34.232Z,100840.16
2022-11-19T09:56:00.699Z,100837.16
2022-11-19T09:58:32.526Z,100836.47
2022-11-19T10:00:59.124Z,100838.91
2022-11-19T10:03:32.829Z,100839.38
2022-11-19T10:06:10.480Z,100833.38
2022-11-19T10:08:50.091Z,100831.97
2022-11-19T10:11:30.779Z,100838.91
2022-11-19T10:14:06.762Z,100828.47
2022-11-19T10:16:43.815Z,100821.88
2022-11-19T10:19:26.370Z,100828.06
2022-11-19T10:22:00.416Z,100822.56
2022-11-19T10:24:38.207Z,100818.06
2022-11-19T10:27:10.104Z,100821.03
2022-11-19T10:29:38.941Z,100828.34
2022-11-19T10:32:19.923Z,100832.19
2022-11-19T10:34:51.197Z,100827.53
2022-11-19T10:37:22.274Z,100830.69
2022-11-19T10:39:53.716Z,100834.84
2022-11-19T10:42:25.331Z,100831.41
2022-11-19T10:44:56.326Z,100830.28
2022-11-19T10:47:30.268Z,100826.72
2022-11-19T10:49:58.133Z,100820.53
2022-11-19T10:52:31.056Z,100819.47
2022-11-19T10:55:02.441Z,100822.06
2022-11-19T10:57:31.469Z,100818.03
2022-11-19T10:59:58.475Z,100814.81
2022-11-19T11:02:30.869Z,100808.53
2022-11-19T11:05:08.533Z,100810.56
2022-11-19T11:07:53.133Z,100809.25
2022-11-19T11:10:32.774Z,100808.03
2022-11-19T11:13:07.297Z,100808.38
2022-11-19T11:15:34.232Z,100809.88
2022-11-19T11:18:02.670Z,100802.56
2022-11-19T11:20:31.312Z,100790.19
2022-11-19T11:23:05.999Z,100789.25
2022-11-19T11:25:32.437Z,100784.47
2022-11-19T11:28:05.792Z,100787.31
2022-11-19T11:30:32.349Z,100780.09
2022-11-19T11:33:25.490Z,100783.47
2022-11-19T11:35:56.222Z,100776.28
2022-11-19T11:38:25.066Z,100771.88
2022-11-19T11:43:59.813Z,100774.03
2022-11-19T11:46:32.865Z,100771.00
2022-11-19T11:49:06.881Z,100759.50
2022-11-19T11:51:39.379Z,100765.09
2022-11-19T11:54:18.162Z,100762.44
2022-11-19T11:56:45.596Z,100766.09
2022-11-19T11:59:22.809Z,100752.91
2022-11-19T12:01:57.397Z,100752.00
2022-11-19T12:04:24.601Z,100757.13
2022-11-19T12:07:04.084Z,100757.69
2022-11-19T12:09:38.621Z,100755.31
2022-11-19T12:12:13.834Z,100753.28
2022-11-19T12:14:53.096Z,100743.75
2022-11-19T12:17:35.543Z,100737.97
2022-11-19T12:20:16.499Z,100737.94
2022-11-19T12:22:57.903Z,100736.06
2022-11-19T12:25:29.732Z,100730.47
2022-11-19T12:28:19.997Z,100733.00
2022-11-19T12:30:56.214Z,100734.03
2022-11-19T12:33:35.327Z,100733.56
2022-11-19T12:36:11.395Z,100729.97
2022-11-19T12:38:47.441Z,100727.25
2022-11-19T12:41:32.235Z,100733.91
2022-11-19T12:44:00.308Z,100727.34
2022-11-19T12:46:46.249Z,100733.91
2022-11-19T12:49:40.636Z,100730.28
2022-11-19T12:52:18.207Z,100735.84
2022-11-19T12:54:54.992Z,100728.38
2022-11-19T12:57:35.649Z,100738.19
2022-11-19T13:00:12.273Z,100732.66
2022-11-19T13:02:48.177Z,100730.91
2022-11-19T13:05:19.046Z,100731.94
2022-11-19T13:07:51.725Z,100732.78
2022-11-19T13:10:23.849Z,100732.50
2022-11-19T13:12:52.975Z,100728.88
2022-11-19T13:15:23.080Z,100732.31
2022-11-19T13:17:52.924Z,100727.69
2022-11-19T13:20:25.619Z,100723.47
2022-11-19T13:22:54.612Z,100725.38
2022-11-19T13:25:25.950Z,100722.91
2022-11-19T13:27:54.718Z,100715.09
2022-11-19T13:30:23.537Z,100719.78
2022-11-19T13:32:59.935Z,100716.50
2022-11-19T13:35:31.358Z,100716.88
2022-11-19T13:38:07.004Z,100718.59
2022-11-19T13:40:39.687Z,100717.66
2022-11-19T13:43:30.913Z,100718.09
2022-11-19T13:46:05.306Z,100714.84
2022-11-19T13:48:35.594Z,100718.41
2022-11-19T13:51:06.826Z,100716.38
2022-11-19T13:53:38.211Z,100718.47
2022-11-19T13:56:10.747Z,100720.66
2022-11-19T13:58:37.600Z,100711.13
2022-11-19T14:01:37.468Z,100709.53
2022-11-19T14:04:27.086Z,100711.69
2022-11-19T14:07:12.348Z,100704.91
2022-11-19T14:09:48.818Z,100702.34
2022-11-19T14:12:35.300Z,100701.69
2022-11-19T14:15:22.317Z,100703.09
2022-11-19T14:17:56.349Z,100696.69
2022-11-19T14:20:38.190Z,100696.47
2022-11-19T14:23:04.631Z,100697.34
2022-11-19T14:25:44.323Z,100696.16
2022-11-19T14:28:43.107Z,100698.00
2022-11-19T14:31:09.793Z,100705.44
2022-11-19T14:33:56.835Z,100700.47
2022-11-19T14:36:29.196Z,100708.06
2022-11-19T14:38:58.795Z,100710.84
2022-11-19T14:41:31.456Z,100714.06
2022-11-19T14:44:12.506Z,100703.00
2022-11-19T14:46:41.580Z,100710.59
2022-11-19T14:49:24.491Z,100705.31
2022-11-19T14:51:53.784Z,100699.41
2022-11-19T14:54:31.560Z,100697.66
2022-11-19T14:57:05.944Z,100692.03
2022-11-19T14:59:36.888Z,100695.94
2022-11-19T15:02:14.887Z,100690.53
2022-11-19T15:04:49.376Z,100682.50
2022-11-19T15:07:26.468Z,100685.91
2022-11-19T15:10:08.603Z,100677.28
2022-11-19T15:12:46.771Z,100666.16
2022-11-19T15:15:37.300Z,100669.31
2022-11-19T15:18:29.499Z,100664.75
2022-11-19T15:21:17.754Z,100669.31
2022-11-19T15:23:52.335Z,100671.78
2022-11-19T15:26:26.274Z,100666.50
2022-11-19T15:29:08.681Z,100667.63
2022-11-19T15:31:56.023Z,100666.81
2022-11-19T15:35:11.756Z,100664.31
2022-11-19T15:37:45.961Z,100664.31
2022-11-19T15:40:18.175Z,100659.09
2022-11-19T15:42:51.666Z,100662.66
2022-11-19T15:45:22.129Z,100663.75
2022-11-19T15:47:53.392Z,100666.81
2022-11-19T15:50:22.721Z,100664.00
2022-11-19T15:53:00.070Z,100660.59
2022-11-19T15:55:28.351Z,100658.88
2022-11-19T15:57:56.570Z,100665.16
2022-11-19T16:00:23.553Z,100654.28
2022-11-19T16:02:52.598Z,100655.53
2022-11-19T16:05:21.778Z,100652.88
2022-11-19T16:07:49.124Z,100655.13
2022-11-19T16:10:21.700Z,100647.66
2022-11-19T16:12:55.903Z,100652.22
2022-11-19T16:15:23.988Z,100649.91
2022-11-19T16:17:54.177Z,100644.41
2022-11-19T16:20:21.968Z,100649.03
2022-11-19T16:22:56.778Z,100645.50
2022-11-19T16:25:29.194Z,100642.25
2022-11-19T16:27:59.676Z,100648.16
2022-11-19T16:30:28.954Z,100656.69
2022-11-19T16:32:58.995Z,100664.38
2022-11-19T16:35:27.249Z,100656.06
2022-11-19T16:37:54.996Z,100660.50
2022-11-19T16:40:22.969Z,100663.59
2022-11-19T16:42:53.283Z,100665.09
2022-11-19T16:45:23.251Z,100656.78
2022-11-19T16:47:55.310Z,100664.88
2022-11-19T16:50:29.376Z,100660.50
2022-11-19T16:52:56.133Z,100659.16
2022-11-19T16:55:43.123Z,100659.66
2022-11-19T16:58:23.310Z,100662.50
2022-11-19T17:00:53.257Z,100658.75
2022-11-19T17:03:31.790Z,100662.69
2022-11-19T17:06:00.368Z,100662.25
2022-11-19T17:08:29.627Z,100653.25
2022-11-19T17:11:21.442Z,100660.63
2022-11-19T17:13:47.887Z,100665.03
2022-11-19T17:16:17.571Z,100658.28
2022-11-19T17:18:44.269Z,100670.56
2022-11-19T17:21:23.493Z,100669.75
2022-11-19T17:23:51.719Z,100665.59
2022-11-19T17:26:20.966Z,100656.91
2022-11-19T17:28:49.544Z,100657.25
2022-11-19T17:31:18.133Z,100662.88
2022-11-19T17:33:51.180Z,100665.78
2022-11-19T17:36:19.233Z,100663.47
2022-11-19T17:38:45.645Z,100663.81
2022-11-19T17:41:14.599Z,100664.47
2022-11-19T17:43:41.249Z,100665.75
2022-11-19T17:46:07.885Z,100663.81
2022-11-19T17:48:34.510Z,100660.44
2022-11-19T17:51:00.915Z,100662.50
2022-11-19T17:53:28.673Z,100658.81
2022-11-19T17:55:55.326Z,100658.56
2022-11-19T17:58:21.754Z,100655.69
2022-11-19T18:00:48.522Z,100659.16
2022-11-19T18:03:15.928Z,100648.72
2022-11-19T18:05:46.122Z,100646.00
2022-11-19T18:08:12.559Z,100646.56
2022-11-19T18:10:42.079Z,100646.88
2022-11-19T18:13:10.902Z,100652.84
2022-11-19T18:15:37.394Z,100656.13
2022-11-19T18:18:04.046Z,100654.28
2022-11-19T18:20:30.700Z,100657.25
2022-11-19T18:22:57.121Z,100653.34
2022-11-19T18:25:23.553Z,100660.25
2022-11-19T18:27:51.479Z,100659.06
2022-11-19T18:30:17.891Z,100658.41
2022-11-19T18:32:44.442Z,100662.28
2022-11-19T18:35:14.669Z,100652.25
2022-11-19T18:37:41.158Z,100651.09
2022-11-19T18:40:08.354Z,100651.22
2022-11-19T18:42:35.057Z,100643.03
2022-11-19T18:45:07.113Z,100645.63
2022-11-19T18:47:33.542Z,100645.97
2022-11-19T18:49:59.990Z,100648.31
2022-11-19T18:52:26.421Z,100650.44
2022-11-19T18:54:52.972Z,100652.47
2022-11-19T18:57:19.442Z,100651.81
2022-11-19T18:59:46.256Z,100652.94
2022-11-19T19:02:14.053Z,100645.84
2022-11-19T19:04:40.682Z,100646.69
2022-11-19T19:07:07.330Z,100656.78
2022-11-19T19:09:33.809Z,100645.53
2022-11-19T19:12:00.253Z,100656.97
2022-11-19T19:14:26.801Z,100657.44
2022-11-19T19:16:53.424Z,100663.72
2022-11-19T19:19:21.306Z,100658.28
2022-11-19T19:21:47.814Z,100658.38
2022-11-19T19:24:14.298Z,100663.31
2022-11-19T19:26:40.931Z,100665.41
2022-11-19T19:29:07.515Z,100669.66
2022-11-19T19:31:34.647Z,100673.34
2022-11-19T19:34:01.511Z,100666.16
2022-11-19T19:36:29.610Z,100671.41
2022-11-19T19:38:56.283Z,100674.72
2022-11-19T19:41:24.239Z,100669.84
2022-11-19T19:43:51.785Z,100676.31
2022-11-19T19:46:20.975Z,100678.09
2022-11-19T19:48:49.413Z,100668.91
2022-11-19T19:51:17.004Z,100668.13
2022-11-19T19:53:44.923Z,100668.16
2022-11-19T19:56:13.216Z,100668.47
2022-11-19T19:58:40.744Z,100681.06
2022-11-19T20:01:09.150Z,100671.00
2022-11-19T20:03:35.693Z,100675.72
2022-11-19T20:06:02.607Z,100672.22
2022-11-19T20:08:29.551Z,100674.44
2022-11-19T20:11:02.003Z,100673.00
2022-11-19T20:13:28.456Z,100665.50
2022-11-19T20:15:55.406Z,100665.25
2022-11-19T20:18:21.995Z,100664.69
2022-11-19T20:20:48.478Z,100662.31
2022-11-19T20:23:15.005Z,100660.91
2022-11-19T20:25:41.467Z,100660.03
2022-11-19T20:28:09.408Z,100655.31
2022-11-19T20:30:35.826Z,100663.63
2022-11-19T20:33:02.278Z,100661.91
2022-11-19T20:35:28.910Z,100663.84
2022-11-19T20:37:56.761Z,100672.19
2022-11-19T20:40:25.981Z,100666.44
2022-11-19T20:42:52.430Z,100662.09
2022-11-19T20:45:20.911Z,100665.88
2022-11-19T20:47:47.366Z,100669.09
2022-11-19T20:50:13.821Z,100656.13
2022-11-19T20:52:40.219Z,100651.22
2022-11-19T20:55:07.349Z,100653.63
2022-11-19T20:57:33.755Z,100648.53
2022-11-19T21:00:00.133Z,100648.13
2022-11-19T21:02:28.070Z,100649.34
2022-11-19T21:04:54.632Z,100641.34
2022-11-19T21:07:22.805Z,100636.06
2022-11-19T21:09:49.296Z,100632.13
2022-11-19T21:12:15.712Z,100644.38
2022-11-19T21:14:42.135Z,100631.59
2022-11-19T21:17:08.564Z,100633.56
2022-11-19T21:19:36.294Z,100638.63
2022-11-19T21:22:02.690Z,100629.50
2022-11-19T21:24:29.106Z,100629.63
2022-11-19T21:26:55.498Z,100627.09
2022-11-19T21:29:22.213Z,100628.94
2022-11-19T21:31:48.800Z,100628.00
2022-11-19T21:34:16.973Z,100629.50
2022-11-19T21:36:45.651Z,100618.84
2022-11-19T21:39:12.513Z,100625.50
2022-11-19T21:41:38.891Z,100619.41
2022-11-19T21:44:05.766Z,100621.59
2022-11-19T21:46:32.270Z,100617.66
2022-11-19T21:48:58.703Z,100620.72
2022-11-19T21:51:25.509Z,100614.72
2022-11-19T21:53:55.812Z,100617.09
2022-11-19T21:56:22.841Z,100616.59
2022-11-19T21:58:49.365Z,100616.84
2022-11-19T22:01:15.833Z,100613.53
2022-11-19T22:03:42.274Z,100604.28
2022-11-19T22:06:10.302Z,100604.88
2022-11-19T22:08:38.711Z,100614.34
2022-11-19T22:11:07.289Z,100611.16
2022-11-19T22:13:33.851Z,100615.31
2022-11-19T22:16:00.277Z,100611.75
2022-11-19T22:18:26.713Z,100611.50
2022-11-19T22:21:00.139Z,100611.38
2022-11-19T22:23:26.564Z,100613.28
2022-11-19T22:25:53.054Z,100610.56
2022-11-19T22:28:21.014Z,100604.63
2022-11-19T22:30:51.843Z,100606.38
2022-11-19T22:33:18.337Z,100605.84
2022-11-19T22:35:44.759Z,100608.19
2022-11-19T22:38:11.656Z,100609.72
2022-11-19T22:40:38.058Z,100608.69
2022-11-19T22:43:04.520Z,100610.22
2022-11-19T22:45:32.367Z,100606.19
2022-11-19T22:47:58.741Z,100612.47
2022-11-19T22:50:25.232Z,100610.91
2022-11-19T22:52:51.646Z,100616.38
2022-11-19T22:55:18.051Z,100614.97
2022-11-19T22:57:44.633Z,100611.41
2022-11-19T23:00:12.505Z,100610.63
2022-11-19T23:02:40.254Z,100621.94
2022-11-19T23:05:06.919Z,100618.53
2022-11-19T23:07:33.363Z,100624.81
2022-11-19T23:09:59.934Z,100626.69
2022-11-19T23:12:26.426Z,100614.25
2022-11-19T23:14:52.853Z,100618.00
2022-11-19T23:17:19.311Z,100621.41
2022-11-19T23:19:47.046Z,100615.44
2022-11-19T23:22:13.550Z,100614.13
2022-11-19T23:24:39.989Z,100608.06
2022-11-19T23:27:06.471Z,100605.88
2022-11-19T23:29:33.662Z,100603.31
2022-11-19T23:32:00.083Z,100603.81
2022-11-19T23:34:26.491Z,100598.53
2022-11-19T23:36:54.555Z,100596.38
2022-11-19T23:39:21.378Z,100583.13
2022-11-19T23:41:48.230Z,100588.38
2022-11-19T23:44:14.740Z,100588.38
2022-11-19T23:46:41.163Z,100582.19
2022-11-19T23:49:07.887Z,100578.81
2022-11-19T23:51:36.283Z,100577.72
2022-11-19T23:54:04.575Z,100572.16
2022-11-19T23:56:33.069Z,100571.13
2022-11-19T23:59:00.363Z,100568.41
